AIC722 VOBL-VOMM
Flight info
| Callsign | AIC722 |
|---|---|
| Flight time | 0h 29m |
| Altitude | 17000 |
| Route | BIA W116 MMV |
| Aircraft | A320/M-SDE3FGHIRWY/LB1 |
Departure
| Time | 2026-04-22 11:35 |
|---|---|
| Airport | Kempegowda International Airport Bengaluru (VOBL) |
Arrival
| Time | 2026-04-22 12:04 |
|---|---|
| Airport | Chennai International Airport (VOMM) |
| Time | Latitude | Longitude | Altitude | Speed | Heading |
|---|---|---|---|---|---|
| 2026-04-22 10:46 | 13.20005 | 77.72038 | 3014 ft | 0 kts | 263° |
| 2026-04-22 11:19 | 13.20006 | 77.72045 | 3011 ft | 4 kts | 263° |
| 2026-04-22 11:19 | 13.20009 | 77.72073 | 3011 ft | 4 kts | 265° |
| 2026-04-22 11:20 | 13.20009 | 77.72099 | 3011 ft | 4 kts | 292° |
| 2026-04-22 11:20 | 13.19999 | 77.72111 | 3011 ft | 1 kts | 0° |
| 2026-04-22 11:23 | 13.20000 | 77.72111 | 3011 ft | 1 kts | 0° |
| 2026-04-22 11:23 | 13.20076 | 77.72112 | 3015 ft | 16 kts | 1° |
| 2026-04-22 11:23 | 13.20190 | 77.72115 | 3011 ft | 17 kts | 360° |
| 2026-04-22 11:23 | 13.20312 | 77.72115 | 3014 ft | 18 kts | 2° |
| 2026-04-22 11:24 | 13.20442 | 77.72118 | 3011 ft | 19 kts | 1° |
| 2026-04-22 11:24 | 13.20511 | 77.72092 | 3012 ft | 9 kts | 304° |
| 2026-04-22 11:24 | 13.20520 | 77.72028 | 3012 ft | 10 kts | 268° |
| 2026-04-22 11:24 | 13.20520 | 77.71913 | 3012 ft | 18 kts | 271° |
| 2026-04-22 11:25 | 13.20522 | 77.71784 | 3012 ft | 18 kts | 270° |
| 2026-04-22 11:25 | 13.20523 | 77.71617 | 3012 ft | 29 kts | 271° |
| 2026-04-22 11:25 | 13.20523 | 77.71408 | 3011 ft | 30 kts | 269° |
| 2026-04-22 11:25 | 13.20526 | 77.71191 | 3011 ft | 31 kts | 271° |
| 2026-04-22 11:26 | 13.20529 | 77.70969 | 3011 ft | 32 kts | 270° |
| 2026-04-22 11:26 | 13.20531 | 77.70741 | 3011 ft | 32 kts | 270° |
| 2026-04-22 11:26 | 13.20532 | 77.70511 | 3011 ft | 33 kts | 270° |
| 2026-04-22 11:26 | 13.20533 | 77.70276 | 3012 ft | 33 kts | 271° |
| 2026-04-22 11:27 | 13.20537 | 77.70039 | 3012 ft | 33 kts | 270° |
| 2026-04-22 11:27 | 13.20538 | 77.69799 | 3012 ft | 34 kts | 270° |
| 2026-04-22 11:27 | 13.20541 | 77.69556 | 3011 ft | 34 kts | 270° |
| 2026-04-22 11:27 | 13.20543 | 77.69309 | 3011 ft | 35 kts | 270° |
| 2026-04-22 11:28 | 13.20545 | 77.69076 | 3011 ft | 30 kts | 270° |
| 2026-04-22 11:28 | 13.20548 | 77.68863 | 3011 ft | 28 kts | 270° |
| 2026-04-22 11:28 | 13.20547 | 77.68724 | 3011 ft | 9 kts | 270° |
| 2026-04-22 11:28 | 13.20547 | 77.68694 | 3011 ft | 0 kts | 270° |
| 2026-04-22 11:29 | 13.20547 | 77.68690 | 3011 ft | 4 kts | 270° |
| 2026-04-22 11:29 | 13.20547 | 77.68674 | 3011 ft | 0 kts | 271° |
| 2026-04-22 11:29 | 13.20548 | 77.68655 | 3011 ft | 11 kts | 272° |
| 2026-04-22 11:30 | 13.20601 | 77.68615 | 3012 ft | 7 kts | 1° |
| 2026-04-22 11:30 | 13.20603 | 77.68615 | 3012 ft | 0 kts | 2° |
| 2026-04-22 11:33 | 13.20613 | 77.68615 | 3012 ft | 8 kts | 2° |
| 2026-04-22 11:33 | 13.20698 | 77.68623 | 3014 ft | 13 kts | 23° |
| 2026-04-22 11:33 | 13.20719 | 77.68699 | 3011 ft | 3 kts | 91° |
| 2026-04-22 11:34 | 13.20718 | 77.68797 | 3011 ft | 45 kts | 90° |
| 2026-04-22 11:34 | 13.20714 | 77.69375 | 3011 ft | 113 kts | 90° |
| 2026-04-22 11:34 | 13.20705 | 77.70392 | 3011 ft | 166 kts | 90° |
| 2026-04-22 11:34 | 13.20699 | 77.71657 | 3420 ft | 179 kts | 89° |
| 2026-04-22 11:35 | 13.20937 | 77.72863 | 4337 ft | 166 kts | 63° |
| 2026-04-22 11:35 | 13.21535 | 77.73886 | 4796 ft | 174 kts | 60° |
| 2026-04-22 11:35 | 13.22189 | 77.75020 | 4959 ft | 196 kts | 61° |
| 2026-04-22 11:35 | 13.22897 | 77.76280 | 5090 ft | 218 kts | 64° |
| 2026-04-22 11:36 | 13.23267 | 77.77849 | 5297 ft | 240 kts | 94° |
| 2026-04-22 11:36 | 13.22884 | 77.79597 | 5562 ft | 263 kts | 107° |
| 2026-04-22 11:36 | 13.22278 | 77.81418 | 6085 ft | 274 kts | 109° |
| 2026-04-22 11:36 | 13.21635 | 77.83278 | 6806 ft | 278 kts | 109° |
| 2026-04-22 11:37 | 13.20983 | 77.85153 | 7532 ft | 281 kts | 109° |
| 2026-04-22 11:37 | 13.20322 | 77.87053 | 8242 ft | 284 kts | 109° |
| 2026-04-22 11:37 | 13.19870 | 77.88351 | 8711 ft | 287 kts | 109° |
| 2026-04-22 11:37 | 13.18978 | 77.90930 | 9611 ft | 292 kts | 109° |
| 2026-04-22 11:38 | 13.18518 | 77.92259 | 10089 ft | 295 kts | 109° |
| 2026-04-22 11:38 | 13.17807 | 77.94313 | 10326 ft | 316 kts | 109° |
| 2026-04-22 11:38 | 13.16237 | 77.98869 | 10611 ft | 360 kts | 109° |
| 2026-04-22 11:39 | 13.15392 | 78.01333 | 11014 ft | 370 kts | 109° |
| 2026-04-22 11:39 | 13.14529 | 78.03835 | 11657 ft | 374 kts | 109° |
| 2026-04-22 11:39 | 13.13659 | 78.06360 | 12323 ft | 377 kts | 109° |
| 2026-04-22 11:39 | 13.12780 | 78.08904 | 12973 ft | 379 kts | 109° |
| 2026-04-22 11:40 | 13.11899 | 78.11471 | 13565 ft | 384 kts | 109° |
| 2026-04-22 11:40 | 13.11013 | 78.14069 | 14141 ft | 388 kts | 109° |
| 2026-04-22 11:40 | 13.10122 | 78.16692 | 14684 ft | 392 kts | 109° |
| 2026-04-22 11:40 | 13.09226 | 78.19347 | 15189 ft | 396 kts | 109° |
| 2026-04-22 11:41 | 13.08353 | 78.22030 | 15901 ft | 391 kts | 104° |
| 2026-04-22 11:41 | 13.07888 | 78.24665 | 16585 ft | 361 kts | 98° |
| 2026-04-22 11:41 | 13.07555 | 78.27127 | 16819 ft | 339 kts | 98° |
| 2026-04-22 11:41 | 13.07247 | 78.29514 | 16903 ft | 343 kts | 97° |
| 2026-04-22 11:42 | 13.06925 | 78.32022 | 16929 ft | 365 kts | 97° |
| 2026-04-22 11:42 | 13.06582 | 78.34677 | 16933 ft | 386 kts | 97° |
| 2026-04-22 11:42 | 13.06219 | 78.37477 | 16907 ft | 405 kts | 97° |
| 2026-04-22 11:42 | 13.05841 | 78.40402 | 16899 ft | 422 kts | 97° |
| 2026-04-22 11:43 | 13.05450 | 78.43435 | 16912 ft | 436 kts | 97° |
| 2026-04-22 11:43 | 13.05046 | 78.46551 | 16914 ft | 443 kts | 97° |
| 2026-04-22 11:43 | 13.04639 | 78.49689 | 16904 ft | 445 kts | 97° |
| 2026-04-22 11:43 | 13.04231 | 78.52832 | 16898 ft | 445 kts | 97° |
| 2026-04-22 11:44 | 13.03823 | 78.55977 | 16920 ft | 445 kts | 97° |
| 2026-04-22 11:44 | 13.03417 | 78.59124 | 16912 ft | 445 kts | 97° |
| 2026-04-22 11:44 | 13.03011 | 78.62270 | 16886 ft | 445 kts | 97° |
| 2026-04-22 11:44 | 13.02605 | 78.65415 | 16886 ft | 445 kts | 97° |
| 2026-04-22 11:45 | 13.02201 | 78.68557 | 16887 ft | 445 kts | 97° |
| 2026-04-22 11:45 | 13.01794 | 78.71703 | 16873 ft | 445 kts | 97° |
| 2026-04-22 11:45 | 13.01384 | 78.74843 | 16878 ft | 445 kts | 97° |
| 2026-04-22 11:45 | 13.00973 | 78.77990 | 16878 ft | 445 kts | 97° |
| 2026-04-22 11:46 | 13.00561 | 78.81139 | 16903 ft | 445 kts | 97° |
| 2026-04-22 11:46 | 13.00149 | 78.84286 | 16896 ft | 446 kts | 97° |
| 2026-04-22 11:46 | 12.99736 | 78.87431 | 16873 ft | 444 kts | 97° |
| 2026-04-22 11:46 | 12.99322 | 78.90569 | 16864 ft | 444 kts | 97° |
| 2026-04-22 11:47 | 12.98908 | 78.93710 | 16873 ft | 444 kts | 97° |
| 2026-04-22 11:47 | 12.98495 | 78.96850 | 16871 ft | 445 kts | 97° |
| 2026-04-22 11:47 | 12.98080 | 78.99992 | 16869 ft | 445 kts | 97° |
| 2026-04-22 11:47 | 12.97668 | 79.03138 | 16867 ft | 445 kts | 97° |
| 2026-04-22 11:48 | 12.97258 | 79.06285 | 16887 ft | 445 kts | 97° |
| 2026-04-22 11:48 | 12.96797 | 79.09425 | 16896 ft | 446 kts | 102° |
| 2026-04-22 11:48 | 12.95980 | 79.12490 | 16709 ft | 445 kts | 107° |
| 2026-04-22 11:48 | 12.95083 | 79.15518 | 16465 ft | 443 kts | 107° |
| 2026-04-22 11:49 | 12.94184 | 79.18532 | 16210 ft | 441 kts | 107° |
| 2026-04-22 11:49 | 12.93286 | 79.21531 | 15958 ft | 439 kts | 107° |
| 2026-04-22 11:49 | 12.92393 | 79.24520 | 15706 ft | 437 kts | 107° |
| 2026-04-22 11:49 | 12.91509 | 79.27485 | 15247 ft | 433 kts | 107° |
| 2026-04-22 11:50 | 12.90637 | 79.30424 | 14526 ft | 428 kts | 106° |
| 2026-04-22 11:50 | 12.89777 | 79.33328 | 13804 ft | 421 kts | 106° |
| 2026-04-22 11:50 | 12.88947 | 79.36127 | 13125 ft | 399 kts | 106° |
| 2026-04-22 11:50 | 12.88156 | 79.38783 | 12507 ft | 385 kts | 106° |
| 2026-04-22 11:51 | 12.87377 | 79.41399 | 11901 ft | 383 kts | 105° |
| 2026-04-22 11:51 | 12.86606 | 79.43992 | 11292 ft | 377 kts | 105° |
| 2026-04-22 11:51 | 12.85862 | 79.46485 | 10950 ft | 354 kts | 105° |
| 2026-04-22 11:51 | 12.85159 | 79.48841 | 10823 ft | 339 kts | 105° |
| 2026-04-22 11:52 | 12.84483 | 79.51102 | 10716 ft | 324 kts | 105° |
| 2026-04-22 11:52 | 12.83836 | 79.53264 | 10624 ft | 311 kts | 105° |
| 2026-04-22 11:52 | 12.83214 | 79.55341 | 10490 ft | 300 kts | 105° |
| 2026-04-22 11:52 | 12.82610 | 79.57365 | 10228 ft | 295 kts | 105° |
| 2026-04-22 11:53 | 12.82017 | 79.59362 | 9995 ft | 291 kts | 105° |
| 2026-04-22 11:53 | 12.81430 | 79.61338 | 9777 ft | 289 kts | 105° |
| 2026-04-22 11:53 | 12.80844 | 79.63299 | 9652 ft | 288 kts | 105° |
| 2026-04-22 11:53 | 12.80258 | 79.65265 | 9523 ft | 288 kts | 105° |
| 2026-04-22 11:54 | 12.79673 | 79.67227 | 9418 ft | 288 kts | 105° |
| 2026-04-22 11:54 | 12.79136 | 79.69192 | 9324 ft | 286 kts | 98° |
| 2026-04-22 11:54 | 12.79082 | 79.71229 | 8844 ft | 288 kts | 81° |
| 2026-04-22 11:54 | 12.79671 | 79.73158 | 8291 ft | 282 kts | 63° |
| 2026-04-22 11:55 | 12.80724 | 79.74841 | 7749 ft | 280 kts | 56° |
| 2026-04-22 11:55 | 12.81815 | 79.76490 | 7208 ft | 278 kts | 57° |
| 2026-04-22 11:55 | 12.82891 | 79.78134 | 6648 ft | 276 kts | 57° |
| 2026-04-22 11:55 | 12.83931 | 79.79774 | 6176 ft | 269 kts | 63° |
| 2026-04-22 11:56 | 12.84641 | 79.81449 | 6045 ft | 245 kts | 68° |
| 2026-04-22 11:56 | 12.85283 | 79.82988 | 5925 ft | 226 kts | 67° |
| 2026-04-22 11:56 | 12.85889 | 79.84412 | 5795 ft | 211 kts | 67° |
| 2026-04-22 11:56 | 12.86453 | 79.85741 | 5680 ft | 192 kts | 68° |
| 2026-04-22 11:57 | 12.86948 | 79.86916 | 5568 ft | 169 kts | 68° |
| 2026-04-22 11:57 | 12.87401 | 79.87996 | 5471 ft | 162 kts | 68° |
| 2026-04-22 11:57 | 12.87836 | 79.89037 | 5289 ft | 156 kts | 69° |
| 2026-04-22 11:57 | 12.88261 | 79.90057 | 5074 ft | 155 kts | 69° |
| 2026-04-22 11:58 | 12.88683 | 79.91069 | 4877 ft | 154 kts | 69° |
| 2026-04-22 11:58 | 12.89104 | 79.92079 | 4674 ft | 155 kts | 69° |
| 2026-04-22 11:58 | 12.89525 | 79.93093 | 4442 ft | 155 kts | 69° |
| 2026-04-22 11:58 | 12.89948 | 79.94106 | 4225 ft | 154 kts | 70° |
| 2026-04-22 11:59 | 12.90367 | 79.95112 | 4030 ft | 152 kts | 69° |
| 2026-04-22 11:59 | 12.90783 | 79.96109 | 3977 ft | 153 kts | 69° |
| 2026-04-22 11:59 | 12.91202 | 79.97117 | 3828 ft | 153 kts | 70° |
| 2026-04-22 11:59 | 12.91619 | 79.98123 | 3622 ft | 153 kts | 69° |
| 2026-04-22 12:00 | 12.92037 | 79.99127 | 3430 ft | 153 kts | 69° |
| 2026-04-22 12:00 | 12.92549 | 80.00090 | 3200 ft | 154 kts | 65° |
| 2026-04-22 12:00 | 12.93005 | 80.01075 | 2984 ft | 154 kts | 70° |
| 2026-04-22 12:00 | 12.93422 | 80.02084 | 2770 ft | 155 kts | 71° |
| 2026-04-22 12:01 | 12.93821 | 80.03104 | 2553 ft | 154 kts | 72° |
| 2026-04-22 12:01 | 12.94211 | 80.04122 | 2343 ft | 153 kts | 72° |
| 2026-04-22 12:01 | 12.94597 | 80.05141 | 2140 ft | 153 kts | 72° |
| 2026-04-22 12:01 | 12.94981 | 80.06158 | 1938 ft | 153 kts | 72° |
| 2026-04-22 12:02 | 12.95365 | 80.07179 | 1730 ft | 153 kts | 72° |
| 2026-04-22 12:02 | 12.95749 | 80.08198 | 1527 ft | 153 kts | 72° |
| 2026-04-22 12:02 | 12.96131 | 80.09213 | 1328 ft | 153 kts | 73° |
| 2026-04-22 12:02 | 12.96512 | 80.10228 | 1117 ft | 152 kts | 73° |
| 2026-04-22 12:03 | 12.96893 | 80.11241 | 923 ft | 152 kts | 73° |
| 2026-04-22 12:03 | 12.97272 | 80.12252 | 720 ft | 151 kts | 72° |
| 2026-04-22 12:03 | 12.97650 | 80.13255 | 521 ft | 151 kts | 72° |
| 2026-04-22 12:03 | 12.98027 | 80.14260 | 318 ft | 151 kts | 72° |
| 2026-04-22 12:04 | 12.98403 | 80.15262 | 118 ft | 150 kts | 71° |
| 2026-04-22 12:04 | 12.98759 | 80.16226 | 50 ft | 133 kts | 70° |
| 2026-04-22 12:04 | 12.99049 | 80.16991 | 47 ft | 92 kts | 69° |
| 2026-04-22 12:04 | 12.99162 | 80.17294 | 47 ft | 22 kts | 83° |
| 2026-04-22 12:05 | 12.99174 | 80.17439 | 49 ft | 23 kts | 88° |
| 2026-04-22 12:05 | 12.99161 | 80.17553 | 50 ft | 12 kts | 101° |
| 2026-04-22 12:05 | 12.99105 | 80.17572 | 50 ft | 9 kts | 201° |
| 2026-04-22 12:05 | 12.99062 | 80.17517 | 50 ft | 11 kts | 244° |
| 2026-04-22 12:06 | 12.99034 | 80.17431 | 50 ft | 14 kts | 251° |
| 2026-04-22 12:06 | 12.98992 | 80.17325 | 49 ft | 18 kts | 243° |
| 2026-04-22 12:06 | 12.98931 | 80.17198 | 49 ft | 22 kts | 248° |
| 2026-04-22 12:06 | 12.98873 | 80.17039 | 48 ft | 26 kts | 248° |
| 2026-04-22 12:07 | 12.98808 | 80.16866 | 48 ft | 20 kts | 250° |
| 2026-04-22 12:07 | 12.98758 | 80.16758 | 46 ft | 14 kts | 230° |
| 2026-04-22 12:07 | 12.98661 | 80.16733 | 48 ft | 15 kts | 150° |
| 2026-04-22 12:07 | 12.98577 | 80.16721 | 48 ft | 16 kts | 245° |
| 2026-04-22 12:08 | 12.98550 | 80.16639 | 48 ft | 12 kts | 251° |
| 2026-04-22 12:08 | 12.98505 | 80.16585 | 48 ft | 10 kts | 173° |
| 2026-04-22 12:08 | 12.98452 | 80.16602 | 48 ft | 3 kts | 163° |
| 2026-04-22 12:08 | 12.98450 | 80.16603 | 48 ft | 0 kts | 163° |
| 2026-04-22 12:13 | 12.85054 | 79.82444 | 5971 ft | 232 kts | 68° |
| 2026-04-22 12:13 | 12.85676 | 79.83913 | 5842 ft | 215 kts | 67° |
| 2026-04-22 12:13 | 12.86258 | 79.85281 | 5719 ft | 201 kts | 68° |
| 2026-04-22 12:13 | 12.86778 | 79.86511 | 5603 ft | 176 kts | 68° |
| 2026-04-22 12:14 | 12.87240 | 79.87612 | 5524 ft | 164 kts | 68° |
| 2026-04-22 12:14 | 12.87681 | 79.88667 | 5352 ft | 158 kts | 68° |
| 2026-04-22 12:14 | 12.96374 | 80.09860 | 1193 ft | 152 kts | 72° |
| 2026-04-22 12:14 | 12.96754 | 80.10873 | 994 ft | 152 kts | 72° |
| 2026-04-22 12:15 | 12.97134 | 80.11883 | 792 ft | 152 kts | 72° |
| 2026-04-22 12:15 | 12.97385 | 80.12549 | 657 ft | 148 kts | 72° |